createdAt,value
2022-08-07T00:00:45.008Z,78.70
2022-08-07T00:03:36.793Z,77.60
2022-08-07T00:06:29.428Z,77.60
2022-08-07T00:09:22.568Z,76.30
2022-08-07T00:12:14.243Z,77.00
2022-08-07T00:15:07.938Z,78.30
2022-08-07T00:17:55.999Z,78.80
2022-08-07T00:20:43.945Z,78.70
2022-08-07T00:23:36.835Z,78.00
2022-08-07T00:26:49.139Z,77.30
2022-08-07T00:29:37.063Z,78.50
2022-08-07T00:32:28.275Z,78.60
2022-08-07T00:35:16.727Z,77.60
2022-08-07T00:38:06.141Z,77.90
2022-08-07T00:40:55.164Z,78.30
2022-08-07T00:44:00.548Z,78.50
2022-08-07T00:46:50.452Z,78.20
2022-08-07T00:50:20.235Z,78.30
2022-08-07T00:52:47.259Z,78.60
2022-08-07T00:56:02.117Z,79.60
2022-08-07T00:58:46.953Z,77.20
2022-08-07T01:01:44.239Z,78.70
2022-08-07T01:04:32.585Z,81.50
2022-08-07T01:07:22.962Z,80.10
2022-08-07T01:10:15.306Z,79.60
2022-08-07T01:13:06.059Z,79.60
2022-08-07T01:16:04.947Z,79.90
2022-08-07T01:18:53.242Z,80.10
2022-08-07T01:21:44.394Z,79.20
2022-08-07T01:24:34.683Z,79.20
2022-08-07T01:27:23.180Z,79.40
2022-08-07T01:30:15.349Z,79.20
2022-08-07T01:33:07.548Z,78.80
2022-08-07T01:36:06.526Z,80.10
2022-08-07T01:38:59.198Z,80.10
2022-08-07T01:42:07.232Z,78.70
2022-08-07T01:44:57.433Z,80.20
2022-08-07T01:48:18.954Z,80.70
2022-08-07T01:51:00.217Z,79.60
2022-08-07T01:54:33.092Z,79.70
2022-08-07T01:57:25.414Z,80.20
2022-08-07T02:00:16.562Z,79.60
2022-08-07T02:03:21.843Z,80.60
2022-08-07T02:06:30.965Z,79.10
2022-08-07T02:09:51.605Z,80.30
2022-08-07T02:12:38.909Z,79.60
2022-08-07T02:15:33.972Z,80.10
2022-08-07T02:18:25.908Z,82.50
2022-08-07T02:21:19.574Z,82.80
2022-08-07T02:24:08.580Z,80.90
2022-08-07T02:27:00.205Z,79.90
2022-08-07T02:29:54.622Z,80.80
2022-08-07T02:33:01.034Z,81.90
2022-08-07T02:36:28.870Z,80.10
2022-08-07T02:39:16.629Z,81.10
2022-08-07T02:42:10.014Z,82.30
2022-08-07T02:45:13.607Z,81.90
2022-08-07T02:48:15.452Z,84.40
2022-08-07T02:51:28.935Z,82.60
2022-08-07T02:54:20.536Z,83.20
2022-08-07T02:57:17.212Z,84.30
2022-08-07T03:00:11.214Z,80.50
2022-08-07T03:03:06.137Z,81.30
2022-08-07T03:05:57.276Z,80.00
2022-08-07T03:08:45.665Z,81.70
2022-08-07T03:11:38.539Z,81.30
2022-08-07T03:14:32.124Z,80.40
2022-08-07T03:17:22.035Z,78.90
2022-08-07T03:20:12.590Z,82.70
2022-08-07T03:23:02.646Z,81.10
2022-08-07T03:25:58.110Z,79.60
2022-08-07T03:28:49.829Z,80.30
2022-08-07T03:31:46.582Z,80.50
2022-08-07T03:34:40.064Z,80.10
2022-08-07T03:37:46.141Z,79.40
2022-08-07T03:40:44.252Z,80.30
2022-08-07T03:43:36.152Z,81.70
2022-08-07T03:46:26.869Z,81.20
2022-08-07T03:49:16.668Z,80.70
2022-08-07T03:52:05.355Z,79.80
2022-08-07T03:54:55.261Z,81.10
2022-08-07T03:59:05.452Z,79.20
2022-08-07T04:00:59.816Z,81.70
2022-08-07T04:03:55.078Z,81.70
2022-08-07T04:06:50.858Z,81.50
2022-08-07T04:09:45.293Z,79.90
2022-08-07T04:12:41.965Z,80.40
2022-08-07T04:15:30.426Z,80.40
2022-08-07T04:18:57.334Z,80.00
2022-08-07T04:21:26.149Z,80.10
2022-08-07T04:24:30.535Z,79.40
2022-08-07T04:27:25.674Z,79.00
2022-08-07T04:30:21.699Z,81.70
2022-08-07T04:33:35.394Z,81.30
2022-08-07T04:36:26.220Z,78.80
2022-08-07T04:39:14.544Z,79.10
2022-08-07T04:42:07.574Z,79.20
2022-08-07T04:45:03.202Z,79.50
2022-08-07T04:48:10.538Z,79.90
2022-08-07T04:51:09.054Z,80.30
2022-08-07T04:54:06.299Z,80.00
2022-08-07T04:58:10.969Z,80.00
2022-08-07T05:00:31.123Z,79.00
2022-08-07T05:03:59.862Z,80.30
2022-08-07T05:06:43.329Z,80.80
2022-08-07T05:09:46.994Z,79.00
2022-08-07T05:12:46.162Z,80.80
2022-08-07T05:15:44.341Z,82.00
2022-08-07T05:18:37.511Z,81.80
2022-08-07T05:22:00.805Z,80.40
2022-08-07T05:24:40.919Z,83.40
2022-08-07T05:28:03.323Z,82.50
2022-08-07T05:30:43.834Z,80.40
2022-08-07T05:33:38.136Z,80.50
2022-08-07T05:36:30.344Z,79.90
2022-08-07T05:40:17.437Z,81.20
2022-08-07T05:42:34.268Z,81.60
2022-08-07T05:45:46.844Z,80.90
2022-08-07T05:48:36.556Z,79.90
2022-08-07T05:51:46.505Z,80.10
2022-08-07T05:54:53.499Z,79.90
2022-08-07T05:57:48.075Z,79.70
2022-08-07T06:00:40.339Z,78.60
2022-08-07T06:03:53.840Z,78.80
2022-08-07T06:06:46.311Z,78.70
2022-08-07T06:09:45.078Z,79.40
2022-08-07T06:12:45.201Z,80.40
2022-08-07T06:15:42.469Z,80.40
2022-08-07T06:18:38.520Z,79.80
2022-08-07T06:22:15.116Z,79.00
2022-08-07T06:24:56.797Z,79.00
2022-08-07T06:28:01.918Z,78.20
2022-08-07T06:30:52.862Z,80.20
2022-08-07T06:33:42.652Z,80.30
2022-08-07T06:36:35.238Z,80.00
2022-08-07T06:40:16.775Z,79.60
2022-08-07T06:42:38.133Z,80.80
2022-08-07T06:45:36.037Z,78.00
2022-08-07T06:48:30.886Z,79.60
2022-08-07T06:51:33.247Z,79.20
2022-08-07T06:55:33.046Z,78.70
2022-08-07T06:57:48.392Z,79.20
2022-08-07T07:00:46.460Z,78.50
2022-08-07T07:03:47.456Z,79.40
2022-08-07T07:06:57.223Z,78.50
2022-08-07T07:09:48.090Z,78.60
2022-08-07T07:12:48.894Z,78.10
2022-08-07T07:15:51.617Z,77.50
2022-08-07T07:18:48.790Z,77.80
2022-08-07T07:22:04.886Z,78.30
2022-08-07T07:24:56.894Z,77.70
2022-08-07T07:28:03.283Z,78.00
2022-08-07T07:31:17.101Z,76.90
2022-08-07T07:34:08.414Z,77.10
2022-08-07T07:36:55.920Z,78.20
2022-08-07T07:40:02.935Z,78.70
2022-08-07T07:43:15.128Z,76.70
2022-08-07T07:46:37.414Z,77.10
2022-08-07T07:50:35.717Z,78.50
2022-08-07T07:52:28.169Z,77.00
2022-08-07T07:55:20.056Z,80.10
2022-08-07T07:58:13.370Z,77.80
2022-08-07T08:01:01.886Z,79.70
2022-08-07T08:04:11.982Z,77.80
2022-08-07T08:07:02.830Z,79.10
2022-08-07T08:10:05.257Z,79.30
2022-08-07T08:12:59.679Z,79.20
2022-08-07T08:15:59.098Z,77.80
2022-08-07T08:18:50.489Z,77.50
2022-08-07T08:22:03.283Z,77.30
2022-08-07T08:25:24.737Z,79.10
2022-08-07T08:28:38.595Z,76.10
2022-08-07T08:32:17.569Z,75.80
2022-08-07T08:34:52.939Z,76.50
2022-08-07T08:38:01.766Z,77.10
2022-08-07T08:40:57.312Z,78.10
2022-08-07T08:44:01.423Z,76.70
2022-08-07T08:46:59.874Z,75.50
2022-08-07T08:50:05.067Z,79.70
2022-08-07T08:53:03.944Z,79.30
2022-08-07T08:55:59.298Z,75.30
2022-08-07T08:58:54.886Z,76.80
2022-08-07T09:01:51.005Z,73.30
2022-08-07T09:04:46.360Z,74.80
2022-08-07T09:07:58.070Z,72.30
2022-08-07T09:10:56.454Z,71.80
2022-08-07T09:13:59.035Z,72.10
2022-08-07T09:17:01.643Z,73.10
2022-08-07T09:19:59.242Z,73.80
2022-08-07T09:24:31.221Z,72.60
2022-08-07T09:26:20.903Z,71.30
2022-08-07T09:30:03.367Z,74.60
2022-08-07T09:32:52.298Z,71.80
2022-08-07T09:36:03.238Z,73.60
2022-08-07T09:39:11.444Z,70.80
2022-08-07T09:42:33.754Z,74.60
2022-08-07T09:47:26.145Z,70.90
2022-08-07T09:50:01.044Z,69.80
2022-08-07T09:52:33.538Z,69.70
2022-08-07T09:55:29.475Z,71.60
2022-08-07T09:59:14.562Z,71.40
2022-08-07T10:02:36.218Z,68.80
2022-08-07T10:06:17.338Z,69.80
2022-08-07T10:09:42.985Z,67.70
2022-08-07T10:12:54.255Z,66.20
2022-08-07T10:15:58.876Z,67.20
2022-08-07T10:19:16.719Z,70.80
2022-08-07T10:22:36.851Z,69.00
2022-08-07T10:25:44.485Z,65.80
2022-08-07T10:29:03.627Z,69.20
2022-08-07T10:32:33.329Z,67.00
2022-08-07T10:35:53.451Z,66.50
2022-08-07T10:38:53.217Z,65.90
2022-08-07T10:41:53.797Z,64.10
2022-08-07T10:45:00.816Z,66.00
2022-08-07T10:48:10.836Z,69.30
2022-08-07T10:51:07.625Z,68.80
2022-08-07T10:54:17.301Z,66.30
2022-08-07T10:57:34.500Z,63.50
2022-08-07T11:00:36.357Z,66.70
2022-08-07T11:03:37.332Z,68.40
2022-08-07T11:06:32.565Z,66.70
2022-08-07T11:10:09.293Z,68.30
2022-08-07T11:12:43.334Z,66.80
2022-08-07T11:15:37.445Z,66.80
2022-08-07T11:18:31.939Z,64.10
2022-08-07T11:21:32.049Z,62.80
2022-08-07T11:24:29.800Z,64.50
2022-08-07T11:27:48.852Z,65.90
2022-08-07T11:30:43.887Z,64.40
2022-08-07T11:33:53.457Z,66.00
2022-08-07T11:37:00.469Z,65.00
2022-08-07T11:40:04.694Z,64.40
2022-08-07T11:43:02.429Z,63.10
2022-08-07T11:46:21.228Z,64.10
2022-08-07T11:50:11.161Z,64.90
2022-08-07T11:52:53.484Z,64.90
2022-08-07T11:56:11.929Z,62.30
2022-08-07T12:00:11.185Z,65.00
2022-08-07T12:03:41.735Z,64.30
2022-08-07T12:06:50.901Z,63.90
2022-08-07T12:09:50.521Z,64.10
2022-08-07T12:12:46.431Z,65.20
2022-08-07T12:16:05.808Z,63.60
2022-08-07T12:18:54.789Z,61.50
2022-08-07T12:22:37.179Z,61.70
2022-08-07T12:26:05.853Z,63.80
2022-08-07T12:28:49.869Z,60.40
2022-08-07T12:32:01.458Z,59.90
2022-08-07T12:34:56.088Z,59.70
2022-08-07T12:38:09.806Z,62.70
2022-08-07T12:40:58.870Z,61.80
2022-08-07T12:44:03.990Z,62.80
2022-08-07T12:47:07.156Z,62.90
2022-08-07T12:50:38.340Z,61.70
2022-08-07T12:53:22.071Z,61.60
2022-08-07T12:56:19.893Z,58.90
2022-08-07T12:59:20.725Z,61.30
2022-08-07T13:02:31.052Z,61.50
2022-08-07T13:06:02.653Z,60.40
2022-08-07T13:08:58.660Z,63.40
2022-08-07T13:12:01.795Z,60.50
2022-08-07T13:15:02.933Z,62.00
2022-08-07T13:18:02.345Z,63.90
2022-08-07T13:20:58.554Z,60.30
2022-08-07T13:24:01.470Z,63.70
2022-08-07T13:26:59.908Z,64.00
2022-08-07T13:30:03.672Z,61.60
2022-08-07T13:33:00.879Z,60.40
2022-08-07T13:35:59.618Z,60.30
2022-08-07T13:39:00.092Z,60.80
2022-08-07T13:41:54.914Z,60.80
2022-08-07T13:44:43.646Z,60.90
2022-08-07T13:48:08.190Z,60.50
2022-08-07T13:51:01.214Z,62.50
2022-08-07T13:54:00.307Z,61.10
2022-08-07T13:56:51.970Z,62.50
2022-08-07T13:59:48.465Z,61.90
2022-08-07T14:02:51.082Z,61.70
2022-08-07T14:05:43.925Z,60.80
2022-08-07T14:08:44.479Z,61.40
2022-08-07T14:12:00.225Z,60.40
2022-08-07T14:14:55.744Z,63.60
2022-08-07T14:18:28.056Z,60.10
2022-08-07T14:21:08.468Z,59.30
2022-08-07T14:24:15.436Z,59.30
2022-08-07T14:28:09.590Z,59.90
2022-08-07T14:30:32.761Z,60.60
2022-08-07T14:33:24.321Z,61.80
2022-08-07T14:36:34.323Z,60.10
2022-08-07T14:40:18.044Z,61.60
2022-08-07T14:42:59.811Z,62.80
2022-08-07T14:45:49.461Z,61.10
2022-08-07T14:48:42.962Z,59.90
2022-08-07T14:52:03.258Z,60.00
2022-08-07T14:54:43.194Z,60.00
2022-08-07T14:57:58.424Z,60.80
2022-08-07T15:00:51.328Z,59.90
2022-08-07T15:03:52.380Z,60.00
2022-08-07T15:06:47.570Z,61.00
2022-08-07T15:09:57.589Z,60.60
2022-08-07T15:16:11.464Z,60.90
2022-08-07T15:19:04.222Z,59.80
2022-08-07T15:28:35.239Z,58.50
2022-08-07T15:34:50.534Z,59.90
2022-08-07T15:38:04.788Z,60.00
2022-08-07T15:41:22.910Z,61.30
2022-08-07T15:44:04.724Z,61.90
2022-08-07T15:47:03.633Z,60.40
2022-08-07T15:50:04.820Z,61.00
2022-08-07T15:53:02.560Z,60.00
2022-08-07T15:56:02.761Z,59.40
2022-08-07T15:58:59.384Z,58.70
2022-08-07T16:02:01.683Z,60.30
2022-08-07T16:04:59.341Z,59.90
2022-08-07T16:08:30.817Z,59.80
2022-08-07T16:11:03.949Z,59.60
2022-08-07T16:14:19.379Z,59.10
2022-08-07T16:18:02.028Z,58.90
2022-08-07T16:21:57.163Z,58.20
2022-08-07T16:24:33.790Z,58.80
2022-08-07T16:27:40.531Z,60.60
2022-08-07T16:30:35.958Z,60.00
2022-08-07T16:34:02.402Z,58.20
2022-08-07T16:38:03.478Z,57.10
2022-08-07T16:41:41.555Z,58.30
2022-08-07T16:45:23.335Z,58.40
2022-08-07T16:48:58.430Z,57.80
2022-08-07T16:52:51.638Z,59.50
2022-08-07T16:55:20.361Z,57.70
2022-08-07T16:58:23.677Z,62.50
2022-08-07T17:01:35.803Z,60.70
2022-08-07T17:04:57.630Z,59.10
2022-08-07T17:07:58.166Z,60.90
2022-08-07T17:10:54.860Z,59.40
2022-08-07T17:14:18.307Z,60.70
2022-08-07T17:17:21.553Z,59.60
2022-08-07T17:20:20.830Z,60.50
2022-08-07T17:23:32.339Z,60.50
2022-08-07T17:26:35.884Z,61.00
2022-08-07T17:30:15.774Z,60.50
2022-08-07T17:34:08.545Z,59.70
2022-08-07T17:36:32.604Z,59.90
2022-08-07T17:39:58.614Z,60.60
2022-08-07T17:43:15.005Z,60.10
2022-08-07T17:46:21.073Z,60.40
2022-08-07T17:49:30.155Z,60.20
2022-08-07T17:52:30.697Z,60.80
2022-08-07T17:56:00.999Z,60.60
2022-08-07T17:58:47.136Z,61.10
2022-08-07T18:01:48.485Z,61.90
2022-08-07T18:04:46.493Z,60.30
2022-08-07T18:07:44.903Z,61.10
2022-08-07T18:12:07.518Z,59.30
2022-08-07T18:14:01.655Z,61.30
2022-08-07T18:16:58.062Z,61.90
2022-08-07T18:21:06.658Z,73.70
2022-08-07T18:23:43.166Z,74.90
2022-08-07T18:26:32.172Z,75.20
2022-08-07T18:30:06.081Z,77.40
2022-08-07T18:33:17.774Z,76.70
2022-08-07T18:36:18.811Z,78.70
2022-08-07T18:40:07.484Z,78.60
2022-08-07T18:43:06.188Z,79.00
2022-08-07T18:46:24.889Z,79.90
2022-08-07T18:50:31.878Z,79.90
2022-08-07T18:53:06.019Z,80.70
2022-08-07T18:56:03.871Z,81.40
2022-08-07T18:59:46.681Z,82.00
2022-08-07T19:02:34.659Z,83.30
2022-08-07T19:06:02.749Z,83.40
2022-08-07T19:08:52.328Z,83.50
2022-08-07T19:12:05.004Z,83.70
2022-08-07T19:16:05.826Z,84.00
2022-08-07T19:18:44.810Z,86.60
2022-08-07T19:21:53.525Z,85.70
2022-08-07T19:24:48.941Z,86.00
2022-08-07T19:30:55.674Z,86.00
2022-08-07T19:31:37.220Z,85.20
2022-08-07T19:34:04.533Z,86.90
2022-08-07T19:36:55.793Z,87.10
2022-08-07T19:40:03.213Z,87.50
2022-08-07T19:42:52.032Z,87.80
2022-08-07T19:46:04.978Z,88.40
2022-08-07T19:49:01.447Z,88.50
2022-08-07T19:51:51.900Z,88.90
2022-08-07T19:54:56.309Z,88.60
2022-08-07T19:57:59.984Z,88.90
2022-08-07T20:01:01.742Z,88.80
2022-08-07T20:03:57.331Z,88.70
2022-08-07T20:06:47.527Z,89.20
2022-08-07T20:10:35.528Z,89.40
2022-08-07T20:12:55.038Z,89.50
2022-08-07T20:15:45.114Z,89.80
2022-08-07T20:18:35.594Z,89.80
2022-08-07T20:21:29.172Z,90.00
2022-08-07T20:24:34.601Z,90.10
2022-08-07T20:27:47.812Z,90.20
2022-08-07T20:30:39.498Z,90.20
2022-08-07T20:33:38.358Z,90.20
2022-08-07T20:36:31.119Z,90.20
2022-08-07T20:40:03.342Z,90.10
2022-08-07T20:42:36.103Z,90.20
2022-08-07T20:46:24.550Z,90.40
2022-08-07T20:48:39.273Z,90.60
2022-08-07T20:51:50.903Z,90.70
2022-08-07T20:54:39.396Z,90.90
2022-08-07T20:57:47.677Z,90.70
2022-08-07T21:00:57.884Z,90.40
2022-08-07T21:04:13.176Z,90.40
2022-08-07T21:07:04.276Z,90.60
2022-08-07T21:10:07.364Z,90.80
2022-08-07T21:13:02.356Z,90.20
2022-08-07T21:16:00.434Z,90.50
2022-08-07T21:18:53.216Z,90.70
2022-08-07T21:21:56.742Z,90.40
2022-08-07T21:25:12.027Z,90.50
2022-08-07T21:28:13.468Z,90.00
2022-08-07T21:31:15.260Z,90.80
2022-08-07T21:34:14.449Z,90.90
2022-08-07T21:37:11.724Z,90.60
2022-08-07T21:40:09.087Z,90.80
2022-08-07T21:43:10.594Z,90.60
2022-08-07T21:46:24.809Z,90.80
2022-08-07T21:49:28.546Z,91.10
2022-08-07T21:52:41.317Z,91.00
2022-08-07T21:55:40.775Z,91.30
2022-08-07T21:58:39.182Z,91.20
2022-08-07T22:02:10.545Z,91.20
2022-08-07T22:04:53.914Z,91.20
2022-08-07T22:07:59.528Z,91.10
2022-08-07T22:10:53.622Z,91.10
2022-08-07T22:13:52.944Z,90.70
2022-08-07T22:16:50.678Z,91.30
2022-08-07T22:19:57.182Z,90.80
2022-08-07T22:22:51.166Z,91.00
2022-08-07T22:25:52.084Z,90.80
2022-08-07T22:28:53.130Z,91.10
2022-08-07T22:32:03.390Z,91.10
2022-08-07T22:34:57.113Z,90.90
2022-08-07T22:38:03.255Z,91.30
2022-08-07T22:41:02.911Z,91.30
2022-08-07T22:43:56.104Z,91.00
2022-08-07T22:47:23.266Z,90.70
2022-08-07T22:50:40.947Z,91.20
2022-08-07T22:54:05.431Z,91.30
2022-08-07T22:57:16.945Z,91.30
2022-08-07T23:00:12.471Z,90.50
2022-08-07T23:03:59.033Z,90.40
2022-08-07T23:07:26.606Z,90.90
2022-08-07T23:10:36.343Z,90.50
2022-08-07T23:14:09.214Z,90.30
2022-08-07T23:17:19.896Z,90.80
2022-08-07T23:20:52.681Z,90.50
2022-08-07T23:24:06.955Z,90.90
2022-08-07T23:27:33.534Z,90.50
2022-08-07T23:30:39.213Z,90.50
2022-08-07T23:34:34.288Z,90.40
2022-08-07T23:38:00.993Z,89.00
2022-08-07T23:40:52.607Z,90.10
2022-08-07T23:44:01.801Z,90.10
2022-08-07T23:47:16.976Z,89.80
2022-08-07T23:50:25.356Z,89.70
2022-08-07T23:53:49.406Z,89.30
2022-08-07T23:56:54.073Z,89.80
